sensor_id;sensor_type;location;lat;lon;timestamp;temperature;humidity
758;DHT22;363;48.764;9.172;2023-10-31T00:02:02;13.30;99.90
758;DHT22;363;48.764;9.172;2023-10-31T00:04:28;13.40;99.90
758;DHT22;363;48.764;9.172;2023-10-31T00:09:19;13.40;99.90
758;DHT22;363;48.764;9.172;2023-10-31T00:11:48;14.30;99.90
758;DHT22;363;48.764;9.172;2023-10-31T00:14:16;13.90;99.90
758;DHT22;363;48.764;9.172;2023-10-31T00:16:44;13.50;99.90
758;DHT22;363;48.764;9.172;2023-10-31T00:19:12;13.40;99.90
758;DHT22;363;48.764;9.172;2023-10-31T00:21:38;13.10;99.90
758;DHT22;363;48.764;9.172;2023-10-31T00:24:06;13.50;99.90
758;DHT22;363;48.764;9.172;2023-10-31T00:26:32;13.20;99.90
758;DHT22;363;48.764;9.172;2023-10-31T00:28:58;15.40;99.90
758;DHT22;363;48.764;9.172;2023-10-31T00:31:23;15.00;99.90
758;DHT22;363;48.764;9.172;2023-10-31T00:33:49;13.70;99.90
758;DHT22;363;48.764;9.172;2023-10-31T00:36:15;14.80;99.90
758;DHT22;363;48.764;9.172;2023-10-31T00:41:07;13.20;99.90
758;DHT22;363;48.764;9.172;2023-10-31T00:43:33;14.90;99.90
758;DHT22;363;48.764;9.172;2023-10-31T00:45:58;13.20;99.90
758;DHT22;363;48.764;9.172;2023-10-31T00:48:24;14.00;99.90
758;DHT22;363;48.764;9.172;2023-10-31T00:50:53;14.80;99.90
758;DHT22;363;48.764;9.172;2023-10-31T00:53:18;13.90;99.90
758;DHT22;363;48.764;9.172;2023-10-31T00:55:44;12.20;99.90
758;DHT22;363;48.764;9.172;2023-10-31T00:58:12;13.40;99.90
758;DHT22;363;48.764;9.172;2023-10-31T01:00:38;13.60;99.90
758;DHT22;363;48.764;9.172;2023-10-31T01:03:03;14.70;99.90
758;DHT22;363;48.764;9.172;2023-10-31T01:05:29;13.30;99.90
758;DHT22;363;48.764;9.172;2023-10-31T01:07:55;13.80;99.90
758;DHT22;363;48.764;9.172;2023-10-31T01:10:21;13.10;99.90
758;DHT22;363;48.764;9.172;2023-10-31T01:12:47;12.80;99.90
758;DHT22;363;48.764;9.172;2023-10-31T01:17:38;13.10;99.90
758;DHT22;363;48.764;9.172;2023-10-31T01:20:06;13.70;99.90
758;DHT22;363;48.764;9.172;2023-10-31T01:22:32;12.70;99.90
758;DHT22;363;48.764;9.172;2023-10-31T01:25:00;14.60;99.90
758;DHT22;363;48.764;9.172;2023-10-31T01:27:27;13.70;99.90
758;DHT22;363;48.764;9.172;2023-10-31T01:29:53;14.30;99.90
758;DHT22;363;48.764;9.172;2023-10-31T01:32:19;13.70;99.90
758;DHT22;363;48.764;9.172;2023-10-31T01:34:47;13.20;99.90
758;DHT22;363;48.764;9.172;2023-10-31T01:37:12;12.90;99.90
758;DHT22;363;48.764;9.172;2023-10-31T01:39:40;13.80;99.90
758;DHT22;363;48.764;9.172;2023-10-31T01:42:08;12.70;99.90
758;DHT22;363;48.764;9.172;2023-10-31T01:44:36;12.40;99.90
758;DHT22;363;48.764;9.172;2023-10-31T01:47:06;14.20;99.90
758;DHT22;363;48.764;9.172;2023-10-31T01:49:35;12.40;99.90
758;DHT22;363;48.764;9.172;2023-10-31T01:52:03;14.10;99.90
758;DHT22;363;48.764;9.172;2023-10-31T01:54:32;12.40;99.90
758;DHT22;363;48.764;9.172;2023-10-31T01:56:59;12.80;99.90
758;DHT22;363;48.764;9.172;2023-10-31T01:59:27;14.40;99.90
758;DHT22;363;48.764;9.172;2023-10-31T02:01:53;12.40;99.90
758;DHT22;363;48.764;9.172;2023-10-31T02:04:19;14.20;99.90
758;DHT22;363;48.764;9.172;2023-10-31T02:06:47;13.80;99.90
758;DHT22;363;48.764;9.172;2023-10-31T02:09:14;14.80;99.90
758;DHT22;363;48.764;9.172;2023-10-31T02:11:39;12.10;99.90
758;DHT22;363;48.764;9.172;2023-10-31T02:14:05;13.90;99.90
758;DHT22;363;48.764;9.172;2023-10-31T02:16:33;14.40;99.90
758;DHT22;363;48.764;9.172;2023-10-31T02:18:59;13.90;99.90
758;DHT22;363;48.764;9.172;2023-10-31T02:21:27;12.60;99.90
758;DHT22;363;48.764;9.172;2023-10-31T02:23:58;12.80;99.90
758;DHT22;363;48.764;9.172;2023-10-31T02:26:28;11.30;99.90
758;DHT22;363;48.764;9.172;2023-10-31T02:28:54;12.00;99.90
758;DHT22;363;48.764;9.172;2023-10-31T02:31:23;12.50;99.90
758;DHT22;363;48.764;9.172;2023-10-31T02:33:49;11.70;99.90
758;DHT22;363;48.764;9.172;2023-10-31T02:36:14;13.70;99.90
758;DHT22;363;48.764;9.172;2023-10-31T02:38:45;11.70;99.90
758;DHT22;363;48.764;9.172;2023-10-31T02:41:13;12.20;99.90
758;DHT22;363;48.764;9.172;2023-10-31T02:43:40;12.00;99.90
758;DHT22;363;48.764;9.172;2023-10-31T02:46:06;14.00;99.90
758;DHT22;363;48.764;9.172;2023-10-31T02:48:40;11.90;99.90
758;DHT22;363;48.764;9.172;2023-10-31T02:51:09;13.40;99.90
758;DHT22;363;48.764;9.172;2023-10-31T02:56:05;11.80;99.90
758;DHT22;363;48.764;9.172;2023-10-31T02:58:34;12.00;99.90
758;DHT22;363;48.764;9.172;2023-10-31T03:01:00;12.00;99.90
758;DHT22;363;48.764;9.172;2023-10-31T03:05:54;11.50;99.90
758;DHT22;363;48.764;9.172;2023-10-31T03:08:20;13.40;99.90
758;DHT22;363;48.764;9.172;2023-10-31T03:10:49;11.60;99.90
758;DHT22;363;48.764;9.172;2023-10-31T03:13:18;12.20;99.90
758;DHT22;363;48.764;9.172;2023-10-31T03:15:47;13.30;99.90
758;DHT22;363;48.764;9.172;2023-10-31T03:18:15;11.60;99.90
758;DHT22;363;48.764;9.172;2023-10-31T03:20:45;11.00;99.90
758;DHT22;363;48.764;9.172;2023-10-31T03:23:12;11.60;99.90
758;DHT22;363;48.764;9.172;2023-10-31T03:25:41;13.10;99.90
758;DHT22;363;48.764;9.172;2023-10-31T03:34:41;12.70;99.90
758;DHT22;363;48.764;9.172;2023-10-31T03:37:36;11.20;99.90
758;DHT22;363;48.764;9.172;2023-10-31T03:40:14;11.50;99.90
758;DHT22;363;48.764;9.172;2023-10-31T03:42:42;11.70;99.90
758;DHT22;363;48.764;9.172;2023-10-31T03:45:13;12.40;99.90
758;DHT22;363;48.764;9.172;2023-10-31T03:48:14;12.20;99.90
758;DHT22;363;48.764;9.172;2023-10-31T03:50:43;11.30;99.90
758;DHT22;363;48.764;9.172;2023-10-31T03:53:16;11.70;99.90
758;DHT22;363;48.764;9.172;2023-10-31T03:55:48;12.50;99.90
758;DHT22;363;48.764;9.172;2023-10-31T03:58:30;11.60;99.90
758;DHT22;363;48.764;9.172;2023-10-31T04:01:05;13.10;99.90
758;DHT22;363;48.764;9.172;2023-10-31T04:03:37;12.60;99.90
758;DHT22;363;48.764;9.172;2023-10-31T04:06:17;11.90;99.90
758;DHT22;363;48.764;9.172;2023-10-31T04:08:48;11.50;99.90
758;DHT22;363;48.764;9.172;2023-10-31T04:11:14;13.60;99.90
758;DHT22;363;48.764;9.172;2023-10-31T04:13:42;12.70;99.90
758;DHT22;363;48.764;9.172;2023-10-31T04:16:11;11.30;99.90
758;DHT22;363;48.764;9.172;2023-10-31T04:18:36;13.20;99.90
758;DHT22;363;48.764;9.172;2023-10-31T04:21:03;12.40;99.90
758;DHT22;363;48.764;9.172;2023-10-31T04:23:36;11.70;99.90
758;DHT22;363;48.764;9.172;2023-10-31T04:26:02;13.40;99.90
758;DHT22;363;48.764;9.172;2023-10-31T04:28:30;11.60;99.90
758;DHT22;363;48.764;9.172;2023-10-31T04:30:56;10.40;99.90
758;DHT22;363;48.764;9.172;2023-10-31T04:33:22;12.70;99.90
758;DHT22;363;48.764;9.172;2023-10-31T04:35:47;11.80;99.90
758;DHT22;363;48.764;9.172;2023-10-31T04:38:14;12.90;99.90
758;DHT22;363;48.764;9.172;2023-10-31T04:40:41;12.20;99.90
758;DHT22;363;48.764;9.172;2023-10-31T04:43:10;11.70;99.90
758;DHT22;363;48.764;9.172;2023-10-31T04:45:36;11.30;99.90
758;DHT22;363;48.764;9.172;2023-10-31T04:48:05;11.40;99.90
758;DHT22;363;48.764;9.172;2023-10-31T04:50:30;13.80;99.90
758;DHT22;363;48.764;9.172;2023-10-31T04:52:57;11.60;99.90
758;DHT22;363;48.764;9.172;2023-10-31T04:55:26;10.80;99.90
758;DHT22;363;48.764;9.172;2023-10-31T04:57:53;11.30;99.90
758;DHT22;363;48.764;9.172;2023-10-31T05:00:19;11.40;99.90
758;DHT22;363;48.764;9.172;2023-10-31T05:02:47;10.30;99.90
758;DHT22;363;48.764;9.172;2023-10-31T05:05:13;11.40;99.90
758;DHT22;363;48.764;9.172;2023-10-31T05:07:39;11.50;99.90
758;DHT22;363;48.764;9.172;2023-10-31T05:10:06;11.30;99.90
758;DHT22;363;48.764;9.172;2023-10-31T05:12:31;11.20;99.90
758;DHT22;363;48.764;9.172;2023-10-31T05:17:24;11.30;99.90
758;DHT22;363;48.764;9.172;2023-10-31T05:19:49;11.40;99.90
758;DHT22;363;48.764;9.172;2023-10-31T05:22:36;11.10;99.90
758;DHT22;363;48.764;9.172;2023-10-31T05:25:02;11.60;99.90
758;DHT22;363;48.764;9.172;2023-10-31T05:27:43;11.20;99.90
758;DHT22;363;48.764;9.172;2023-10-31T05:33:33;10.90;99.90
758;DHT22;363;48.764;9.172;2023-10-31T05:36:31;11.20;99.90
758;DHT22;363;48.764;9.172;2023-10-31T05:39:18;11.00;99.90
758;DHT22;363;48.764;9.172;2023-10-31T05:55:35;10.30;99.90
758;DHT22;363;48.764;9.172;2023-10-31T05:58:01;11.00;99.90
758;DHT22;363;48.764;9.172;2023-10-31T06:20:12;11.60;99.90
758;DHT22;363;48.764;9.172;2023-10-31T06:27:42;11.70;99.90
758;DHT22;363;48.764;9.172;2023-10-31T06:30:35;13.00;99.90
758;DHT22;363;48.764;9.172;2023-10-31T06:35:33;11.80;99.90
758;DHT22;363;48.764;9.172;2023-10-31T06:38:00;11.50;99.90
758;DHT22;363;48.764;9.172;2023-10-31T06:40:26;11.60;99.90
758;DHT22;363;48.764;9.172;2023-10-31T06:42:52;11.80;99.90
758;DHT22;363;48.764;9.172;2023-10-31T06:45:18;11.60;99.90
758;DHT22;363;48.764;9.172;2023-10-31T06:47:43;11.80;99.90
758;DHT22;363;48.764;9.172;2023-10-31T06:50:09;11.70;99.90
758;DHT22;363;48.764;9.172;2023-10-31T06:52:35;11.70;99.90
758;DHT22;363;48.764;9.172;2023-10-31T06:55:00;11.50;99.90
758;DHT22;363;48.764;9.172;2023-10-31T06:57:26;11.90;99.90
758;DHT22;363;48.764;9.172;2023-10-31T06:59:51;12.30;99.90
758;DHT22;363;48.764;9.172;2023-10-31T07:02:17;11.60;99.90
758;DHT22;363;48.764;9.172;2023-10-31T07:04:44;12.00;99.90
758;DHT22;363;48.764;9.172;2023-10-31T07:07:10;12.20;99.90
758;DHT22;363;48.764;9.172;2023-10-31T07:09:35;12.00;99.90
758;DHT22;363;48.764;9.172;2023-10-31T07:12:01;11.90;99.90
758;DHT22;363;48.764;9.172;2023-10-31T07:14:27;11.80;99.90
758;DHT22;363;48.764;9.172;2023-10-31T07:16:53;11.80;99.90
758;DHT22;363;48.764;9.172;2023-10-31T07:19:18;11.70;99.90
758;DHT22;363;48.764;9.172;2023-10-31T07:21:44;12.00;99.90
758;DHT22;363;48.764;9.172;2023-10-31T07:24:09;12.00;99.90
758;DHT22;363;48.764;9.172;2023-10-31T07:26:35;12.00;99.90
758;DHT22;363;48.764;9.172;2023-10-31T07:29:01;11.90;99.90
758;DHT22;363;48.764;9.172;2023-10-31T07:31:28;12.10;99.90
758;DHT22;363;48.764;9.172;2023-10-31T07:33:53;12.00;99.90
758;DHT22;363;48.764;9.172;2023-10-31T07:36:19;12.40;99.90
758;DHT22;363;48.764;9.172;2023-10-31T07:38:44;12.10;99.90
758;DHT22;363;48.764;9.172;2023-10-31T07:41:10;12.20;99.90
758;DHT22;363;48.764;9.172;2023-10-31T07:43:36;12.30;99.90
758;DHT22;363;48.764;9.172;2023-10-31T07:46:01;12.40;99.90
758;DHT22;363;48.764;9.172;2023-10-31T07:48:27;12.20;99.90
758;DHT22;363;48.764;9.172;2023-10-31T07:50:52;12.70;99.90
758;DHT22;363;48.764;9.172;2023-10-31T07:53:19;12.50;99.90
758;DHT22;363;48.764;9.172;2023-10-31T07:55:49;12.60;99.90
758;DHT22;363;48.764;9.172;2023-10-31T07:58:14;13.00;99.90
758;DHT22;363;48.764;9.172;2023-10-31T08:00:40;12.70;99.90
758;DHT22;363;48.764;9.172;2023-10-31T08:03:07;13.60;99.90
758;DHT22;363;48.764;9.172;2023-10-31T08:05:33;14.10;99.90
758;DHT22;363;48.764;9.172;2023-10-31T08:07:58;12.90;99.90
758;DHT22;363;48.764;9.172;2023-10-31T08:10:24;13.10;99.90
758;DHT22;363;48.764;9.172;2023-10-31T08:12:49;12.80;99.90
758;DHT22;363;48.764;9.172;2023-10-31T08:15:16;13.60;99.90
758;DHT22;363;48.764;9.172;2023-10-31T08:17:42;13.20;99.90
758;DHT22;363;48.764;9.172;2023-10-31T08:20:09;13.30;99.90
758;DHT22;363;48.764;9.172;2023-10-31T08:22:39;13.40;99.90
758;DHT22;363;48.764;9.172;2023-10-31T08:25:04;13.10;99.90
758;DHT22;363;48.764;9.172;2023-10-31T08:27:30;13.30;99.90
758;DHT22;363;48.764;9.172;2023-10-31T08:29:56;13.60;99.90
758;DHT22;363;48.764;9.172;2023-10-31T08:32:21;13.40;99.90
758;DHT22;363;48.764;9.172;2023-10-31T08:34:50;13.70;99.90
758;DHT22;363;48.764;9.172;2023-10-31T08:37:15;13.90;99.90
758;DHT22;363;48.764;9.172;2023-10-31T08:39:41;13.70;99.90
758;DHT22;363;48.764;9.172;2023-10-31T08:42:06;14.20;99.90
758;DHT22;363;48.764;9.172;2023-10-31T08:44:39;14.40;99.90
758;DHT22;363;48.764;9.172;2023-10-31T08:47:05;14.00;99.90
758;DHT22;363;48.764;9.172;2023-10-31T08:49:31;14.20;99.90
758;DHT22;363;48.764;9.172;2023-10-31T08:51:57;13.50;99.90
758;DHT22;363;48.764;9.172;2023-10-31T08:54:22;14.30;99.90
758;DHT22;363;48.764;9.172;2023-10-31T08:56:48;14.10;99.90
758;DHT22;363;48.764;9.172;2023-10-31T08:59:14;14.10;99.90
758;DHT22;363;48.764;9.172;2023-10-31T09:01:42;14.30;99.90
758;DHT22;363;48.764;9.172;2023-10-31T09:04:08;14.80;99.90
758;DHT22;363;48.764;9.172;2023-10-31T09:06:33;14.20;99.90
758;DHT22;363;48.764;9.172;2023-10-31T09:08:59;14.30;99.90
758;DHT22;363;48.764;9.172;2023-10-31T09:11:25;14.30;99.90
758;DHT22;363;48.764;9.172;2023-10-31T09:13:50;14.80;99.90
758;DHT22;363;48.764;9.172;2023-10-31T09:16:16;14.50;99.90
758;DHT22;363;48.764;9.172;2023-10-31T09:18:41;14.90;99.90
758;DHT22;363;48.764;9.172;2023-10-31T09:21:08;14.70;99.90
758;DHT22;363;48.764;9.172;2023-10-31T09:23:34;15.10;99.90
758;DHT22;363;48.764;9.172;2023-10-31T09:26:00;14.70;99.90
758;DHT22;363;48.764;9.172;2023-10-31T09:28:25;14.30;99.90
758;DHT22;363;48.764;9.172;2023-10-31T09:30:51;14.90;99.90
758;DHT22;363;48.764;9.172;2023-10-31T09:33:16;14.90;99.90
758;DHT22;363;48.764;9.172;2023-10-31T09:35:42;14.90;99.90
758;DHT22;363;48.764;9.172;2023-10-31T09:38:08;14.90;99.90
758;DHT22;363;48.764;9.172;2023-10-31T09:40:37;14.70;99.90
758;DHT22;363;48.764;9.172;2023-10-31T09:43:03;15.20;99.90
758;DHT22;363;48.764;9.172;2023-10-31T09:45:29;14.60;99.90
758;DHT22;363;48.764;9.172;2023-10-31T09:47:56;15.20;99.90
758;DHT22;363;48.764;9.172;2023-10-31T09:50:22;14.50;99.90
758;DHT22;363;48.764;9.172;2023-10-31T09:52:48;15.30;99.90
758;DHT22;363;48.764;9.172;2023-10-31T09:55:14;15.10;99.90
758;DHT22;363;48.764;9.172;2023-10-31T09:57:39;14.80;99.90
758;DHT22;363;48.764;9.172;2023-10-31T10:00:05;14.30;99.90
758;DHT22;363;48.764;9.172;2023-10-31T10:02:31;14.90;99.90
758;DHT22;363;48.764;9.172;2023-10-31T10:04:57;14.70;99.90
758;DHT22;363;48.764;9.172;2023-10-31T10:07:22;15.50;99.90
758;DHT22;363;48.764;9.172;2023-10-31T10:09:48;15.10;99.90
758;DHT22;363;48.764;9.172;2023-10-31T10:12:15;15.10;99.90
758;DHT22;363;48.764;9.172;2023-10-31T10:14:41;14.40;99.90
758;DHT22;363;48.764;9.172;2023-10-31T10:17:17;15.20;99.90
758;DHT22;363;48.764;9.172;2023-10-31T10:19:43;15.30;99.90
758;DHT22;363;48.764;9.172;2023-10-31T10:22:08;15.10;99.90
758;DHT22;363;48.764;9.172;2023-10-31T10:24:35;15.00;99.90
758;DHT22;363;48.764;9.172;2023-10-31T10:27:04;15.10;99.90
758;DHT22;363;48.764;9.172;2023-10-31T10:29:29;15.10;99.90
758;DHT22;363;48.764;9.172;2023-10-31T10:31:55;14.80;99.90
758;DHT22;363;48.764;9.172;2023-10-31T10:34:21;15.50;99.90
758;DHT22;363;48.764;9.172;2023-10-31T10:36:49;14.70;99.90
758;DHT22;363;48.764;9.172;2023-10-31T10:39:21;15.60;99.90
758;DHT22;363;48.764;9.172;2023-10-31T10:41:51;15.70;99.90
758;DHT22;363;48.764;9.172;2023-10-31T10:44:18;15.00;99.90
758;DHT22;363;48.764;9.172;2023-10-31T10:46:48;15.30;99.90
758;DHT22;363;48.764;9.172;2023-10-31T10:49:16;15.10;99.90
758;DHT22;363;48.764;9.172;2023-10-31T10:51:50;15.40;99.90
758;DHT22;363;48.764;9.172;2023-10-31T10:57:38;15.00;99.90
758;DHT22;363;48.764;9.172;2023-10-31T11:00:08;16.60;99.90
758;DHT22;363;48.764;9.172;2023-10-31T11:02:36;15.00;99.90
758;DHT22;363;48.764;9.172;2023-10-31T11:05:05;14.20;99.90
758;DHT22;363;48.764;9.172;2023-10-31T11:07:36;15.10;99.90
758;DHT22;363;48.764;9.172;2023-10-31T11:10:02;15.10;99.90
758;DHT22;363;48.764;9.172;2023-10-31T11:12:30;15.30;99.90
758;DHT22;363;48.764;9.172;2023-10-31T11:15:01;16.70;99.90
758;DHT22;363;48.764;9.172;2023-10-31T11:17:37;17.20;99.90
758;DHT22;363;48.764;9.172;2023-10-31T11:20:07;15.80;99.90
758;DHT22;363;48.764;9.172;2023-10-31T11:22:46;15.80;99.90
758;DHT22;363;48.764;9.172;2023-10-31T11:25:18;16.70;99.90
758;DHT22;363;48.764;9.172;2023-10-31T11:30:33;15.60;99.90
758;DHT22;363;48.764;9.172;2023-10-31T11:32:59;17.00;99.90
758;DHT22;363;48.764;9.172;2023-10-31T11:35:29;15.70;99.90
758;DHT22;363;48.764;9.172;2023-10-31T11:38:02;14.50;99.90
758;DHT22;363;48.764;9.172;2023-10-31T11:43:14;15.40;99.90
758;DHT22;363;48.764;9.172;2023-10-31T11:45:41;15.50;99.90
758;DHT22;363;48.764;9.172;2023-10-31T11:48:09;15.30;99.90
758;DHT22;363;48.764;9.172;2023-10-31T11:50:39;15.80;99.90
758;DHT22;363;48.764;9.172;2023-10-31T11:53:09;15.70;99.90
758;DHT22;363;48.764;9.172;2023-10-31T11:55:43;15.60;99.90
758;DHT22;363;48.764;9.172;2023-10-31T11:58:22;15.20;99.90
758;DHT22;363;48.764;9.172;2023-10-31T12:00:50;15.60;99.90
758;DHT22;363;48.764;9.172;2023-10-31T12:03:20;15.60;99.90
758;DHT22;363;48.764;9.172;2023-10-31T12:05:57;15.50;99.90
758;DHT22;363;48.764;9.172;2023-10-31T12:08:37;15.80;99.90
758;DHT22;363;48.764;9.172;2023-10-31T12:13:30;15.40;99.90
758;DHT22;363;48.764;9.172;2023-10-31T12:15:56;15.20;99.90
758;DHT22;363;48.764;9.172;2023-10-31T12:18:22;15.00;99.90
758;DHT22;363;48.764;9.172;2023-10-31T12:20:48;15.50;99.90
758;DHT22;363;48.764;9.172;2023-10-31T12:23:20;15.50;99.90
758;DHT22;363;48.764;9.172;2023-10-31T12:25:50;15.70;99.90
758;DHT22;363;48.764;9.172;2023-10-31T12:28:20;15.00;99.90
758;DHT22;363;48.764;9.172;2023-10-31T12:30:47;14.90;99.90
758;DHT22;363;48.764;9.172;2023-10-31T12:33:13;15.30;99.90
758;DHT22;363;48.764;9.172;2023-10-31T12:35:39;14.60;99.90
758;DHT22;363;48.764;9.172;2023-10-31T12:38:05;14.70;99.90
758;DHT22;363;48.764;9.172;2023-10-31T12:40:31;14.50;99.90
758;DHT22;363;48.764;9.172;2023-10-31T12:42:57;14.60;99.90
758;DHT22;363;48.764;9.172;2023-10-31T12:45:24;15.00;99.90
758;DHT22;363;48.764;9.172;2023-10-31T12:48:10;14.60;99.90
758;DHT22;363;48.764;9.172;2023-10-31T12:50:38;14.70;99.90
758;DHT22;363;48.764;9.172;2023-10-31T12:53:05;14.10;99.90
758;DHT22;363;48.764;9.172;2023-10-31T12:55:40;14.30;99.90
758;DHT22;363;48.764;9.172;2023-10-31T12:58:06;14.30;99.90
758;DHT22;363;48.764;9.172;2023-10-31T13:00:33;14.50;99.90
758;DHT22;363;48.764;9.172;2023-10-31T13:03:07;14.60;99.90
758;DHT22;363;48.764;9.172;2023-10-31T13:05:34;14.60;99.90
758;DHT22;363;48.764;9.172;2023-10-31T13:08:00;14.50;99.90
758;DHT22;363;48.764;9.172;2023-10-31T13:10:29;15.90;99.90
758;DHT22;363;48.764;9.172;2023-10-31T13:12:55;14.50;99.90
758;DHT22;363;48.764;9.172;2023-10-31T13:15:22;14.80;99.90
758;DHT22;363;48.764;9.172;2023-10-31T13:17:48;14.80;99.90
758;DHT22;363;48.764;9.172;2023-10-31T13:20:16;14.50;99.90
758;DHT22;363;48.764;9.172;2023-10-31T13:22:43;14.50;99.90
758;DHT22;363;48.764;9.172;2023-10-31T13:25:10;14.60;99.90
758;DHT22;363;48.764;9.172;2023-10-31T13:27:38;14.60;99.90
758;DHT22;363;48.764;9.172;2023-10-31T13:30:04;14.30;99.90
758;DHT22;363;48.764;9.172;2023-10-31T13:32:30;14.50;99.90
758;DHT22;363;48.764;9.172;2023-10-31T13:34:56;13.90;99.90
758;DHT22;363;48.764;9.172;2023-10-31T13:37:21;14.50;99.90
758;DHT22;363;48.764;9.172;2023-10-31T13:39:47;14.60;99.90
758;DHT22;363;48.764;9.172;2023-10-31T13:42:13;14.30;99.90
758;DHT22;363;48.764;9.172;2023-10-31T13:44:43;14.80;99.90
758;DHT22;363;48.764;9.172;2023-10-31T13:47:09;14.60;99.90
758;DHT22;363;48.764;9.172;2023-10-31T13:49:35;14.40;99.90
758;DHT22;363;48.764;9.172;2023-10-31T13:52:00;14.70;99.90
758;DHT22;363;48.764;9.172;2023-10-31T13:54:26;14.80;99.90
758;DHT22;363;48.764;9.172;2023-10-31T13:56:52;15.30;99.90
758;DHT22;363;48.764;9.172;2023-10-31T13:59:18;14.80;99.90
758;DHT22;363;48.764;9.172;2023-10-31T14:01:44;15.00;99.90
758;DHT22;363;48.764;9.172;2023-10-31T14:04:13;15.00;99.90
758;DHT22;363;48.764;9.172;2023-10-31T14:06:40;14.50;99.90
758;DHT22;363;48.764;9.172;2023-10-31T14:09:08;14.70;99.90
758;DHT22;363;48.764;9.172;2023-10-31T14:11:34;14.70;99.90
758;DHT22;363;48.764;9.172;2023-10-31T14:14:03;14.70;99.90
758;DHT22;363;48.764;9.172;2023-10-31T14:16:41;14.80;99.90
758;DHT22;363;48.764;9.172;2023-10-31T14:19:08;14.80;99.90
758;DHT22;363;48.764;9.172;2023-10-31T14:21:34;14.90;99.90
758;DHT22;363;48.764;9.172;2023-10-31T14:24:00;15.10;99.90
758;DHT22;363;48.764;9.172;2023-10-31T14:26:26;15.50;99.90
758;DHT22;363;48.764;9.172;2023-10-31T14:28:52;15.20;99.90
758;DHT22;363;48.764;9.172;2023-10-31T14:31:18;15.10;99.90
758;DHT22;363;48.764;9.172;2023-10-31T14:33:46;15.10;99.90
758;DHT22;363;48.764;9.172;2023-10-31T14:36:11;15.10;99.90
758;DHT22;363;48.764;9.172;2023-10-31T14:38:39;15.30;99.90
758;DHT22;363;48.764;9.172;2023-10-31T14:41:05;15.00;99.90
758;DHT22;363;48.764;9.172;2023-10-31T14:43:30;14.80;99.90
758;DHT22;363;48.764;9.172;2023-10-31T14:45:56;14.80;99.90
758;DHT22;363;48.764;9.172;2023-10-31T14:48:22;15.50;99.90
758;DHT22;363;48.764;9.172;2023-10-31T14:50:48;15.00;99.90
758;DHT22;363;48.764;9.172;2023-10-31T14:53:17;15.20;99.90
758;DHT22;363;48.764;9.172;2023-10-31T14:55:44;14.90;99.90
758;DHT22;363;48.764;9.172;2023-10-31T14:58:10;15.00;99.90
758;DHT22;363;48.764;9.172;2023-10-31T15:00:36;15.10;99.90
758;DHT22;363;48.764;9.172;2023-10-31T15:03:02;15.50;99.90
758;DHT22;363;48.764;9.172;2023-10-31T15:05:28;15.30;99.90
758;DHT22;363;48.764;9.172;2023-10-31T15:07:53;14.90;99.90
758;DHT22;363;48.764;9.172;2023-10-31T15:10:20;15.00;99.90
758;DHT22;363;48.764;9.172;2023-10-31T15:12:46;16.00;99.90
758;DHT22;363;48.764;9.172;2023-10-31T15:15:12;14.90;99.90
758;DHT22;363;48.764;9.172;2023-10-31T15:17:38;14.50;99.90
758;DHT22;363;48.764;9.172;2023-10-31T15:20:04;14.90;99.90
758;DHT22;363;48.764;9.172;2023-10-31T15:22:30;14.50;99.90
758;DHT22;363;48.764;9.172;2023-10-31T15:24:55;14.90;99.90
758;DHT22;363;48.764;9.172;2023-10-31T15:27:21;14.60;99.90
758;DHT22;363;48.764;9.172;2023-10-31T15:29:46;14.90;99.90
758;DHT22;363;48.764;9.172;2023-10-31T15:32:12;14.00;99.90
758;DHT22;363;48.764;9.172;2023-10-31T15:34:39;14.40;99.90
758;DHT22;363;48.764;9.172;2023-10-31T15:37:08;14.50;99.90
758;DHT22;363;48.764;9.172;2023-10-31T15:39:34;14.80;99.90
758;DHT22;363;48.764;9.172;2023-10-31T15:41:59;14.60;99.90
758;DHT22;363;48.764;9.172;2023-10-31T15:44:25;14.50;99.90
758;DHT22;363;48.764;9.172;2023-10-31T15:46:50;14.40;99.90
758;DHT22;363;48.764;9.172;2023-10-31T15:49:16;14.50;99.90
758;DHT22;363;48.764;9.172;2023-10-31T15:51:42;14.00;99.90
758;DHT22;363;48.764;9.172;2023-10-31T15:54:08;14.30;99.90
758;DHT22;363;48.764;9.172;2023-10-31T15:56:33;14.30;99.90
758;DHT22;363;48.764;9.172;2023-10-31T15:58:59;14.20;99.90
758;DHT22;363;48.764;9.172;2023-10-31T16:01:27;14.40;99.90
758;DHT22;363;48.764;9.172;2023-10-31T16:03:53;14.10;99.90
758;DHT22;363;48.764;9.172;2023-10-31T16:06:19;14.20;99.90
758;DHT22;363;48.764;9.172;2023-10-31T16:08:44;14.10;99.90
758;DHT22;363;48.764;9.172;2023-10-31T16:11:10;14.40;99.90
758;DHT22;363;48.764;9.172;2023-10-31T16:13:37;14.10;99.90
758;DHT22;363;48.764;9.172;2023-10-31T16:16:07;14.10;99.90
758;DHT22;363;48.764;9.172;2023-10-31T16:18:33;14.10;99.90
758;DHT22;363;48.764;9.172;2023-10-31T16:20:58;13.60;99.90
758;DHT22;363;48.764;9.172;2023-10-31T16:23:24;14.20;99.90
758;DHT22;363;48.764;9.172;2023-10-31T16:25:49;13.80;99.90
758;DHT22;363;48.764;9.172;2023-10-31T16:28:15;13.50;99.90
758;DHT22;363;48.764;9.172;2023-10-31T16:30:40;13.30;99.90
758;DHT22;363;48.764;9.172;2023-10-31T16:33:06;14.00;99.90
758;DHT22;363;48.764;9.172;2023-10-31T16:35:31;13.30;99.90
758;DHT22;363;48.764;9.172;2023-10-31T16:37:57;13.70;99.90
758;DHT22;363;48.764;9.172;2023-10-31T16:40:22;13.90;99.90
758;DHT22;363;48.764;9.172;2023-10-31T16:42:49;13.70;99.90
758;DHT22;363;48.764;9.172;2023-10-31T16:45:15;13.60;99.90
758;DHT22;363;48.764;9.172;2023-10-31T16:47:41;13.40;99.90
758;DHT22;363;48.764;9.172;2023-10-31T16:50:07;13.30;99.90
758;DHT22;363;48.764;9.172;2023-10-31T16:52:33;13.80;99.90
758;DHT22;363;48.764;9.172;2023-10-31T16:54:58;13.50;99.90
758;DHT22;363;48.764;9.172;2023-10-31T16:57:24;13.30;99.90
758;DHT22;363;48.764;9.172;2023-10-31T16:59:49;13.80;99.90
758;DHT22;363;48.764;9.172;2023-10-31T17:02:15;13.30;99.90
758;DHT22;363;48.764;9.172;2023-10-31T17:04:40;13.10;99.90
758;DHT22;363;48.764;9.172;2023-10-31T17:07:06;12.90;99.90
758;DHT22;363;48.764;9.172;2023-10-31T17:09:31;13.30;99.90
758;DHT22;363;48.764;9.172;2023-10-31T17:11:57;13.20;99.90
758;DHT22;363;48.764;9.172;2023-10-31T17:14:22;13.20;99.90
758;DHT22;363;48.764;9.172;2023-10-31T17:16:48;13.40;99.90
758;DHT22;363;48.764;9.172;2023-10-31T17:19:14;12.80;99.90
758;DHT22;363;48.764;9.172;2023-10-31T17:21:40;13.20;99.90
758;DHT22;363;48.764;9.172;2023-10-31T17:24:06;13.40;99.90
758;DHT22;363;48.764;9.172;2023-10-31T17:26:31;13.40;99.90
758;DHT22;363;48.764;9.172;2023-10-31T17:28:57;15.00;99.90
758;DHT22;363;48.764;9.172;2023-10-31T17:31:23;13.10;99.90
758;DHT22;363;48.764;9.172;2023-10-31T17:33:49;13.50;99.90
758;DHT22;363;48.764;9.172;2023-10-31T17:36:15;13.20;99.90
758;DHT22;363;48.764;9.172;2023-10-31T17:38:41;13.50;99.90
758;DHT22;363;48.764;9.172;2023-10-31T17:41:07;13.00;99.90
758;DHT22;363;48.764;9.172;2023-10-31T17:43:33;12.90;99.90
758;DHT22;363;48.764;9.172;2023-10-31T17:45:58;12.90;99.90
758;DHT22;363;48.764;9.172;2023-10-31T17:48:24;13.00;99.90
758;DHT22;363;48.764;9.172;2023-10-31T17:50:50;13.30;99.90
758;DHT22;363;48.764;9.172;2023-10-31T17:53:15;13.00;99.90